CST,Max TemperatureF,Mean TemperatureF,Min TemperatureF,Max Dew PointF,MeanDew PointF,Min DewpointF,Max Humidity, Mean Humidity, Min Humidity, Max Sea Level PressureIn, Mean Sea Level PressureIn, Min Sea Level PressureIn, Max VisibilityMiles, Mean VisibilityMiles, Min VisibilityMiles, Max Wind SpeedMPH, Mean Wind SpeedMPH, Max Gust SpeedMPH,PrecipitationIn, CloudCover, Events, WindDirDegrees
2012-11-1,41,36,30,32,25,21,87,66,52,30.07,29.97,29.91,10,10,10,17,7,24,0.00,6,,337
2012-11-2,42,30,19,25,23,18,93,71,42,30.18,30.13,30.07,10,10,10,9,4,,0.00,2,,18
2012-11-3,37,32,28,27,25,21,86,73,60,30.24,30.21,30.17,10,10,10,9,3,,0.00,7,,65
2012-11-4,42,34,26,27,26,23,100,75,49,30.25,30.21,30.16,10,10,10,9,3,,0.00,6,,54
2012-11-5,39,34,30,36,28,25,93,76,65,30.22,30.13,29.90,10,10,5,12,4,20,0.00,8,,109
2012-11-6,39,36,32,37,34,32,100,91,75,29.96,29.81,29.72,10,7,1,16,9,20,0.12,8,Rain-Snow,271
2012-11-7,41,37,33,34,33,32,93,85,70,30.09,30.04,29.96,10,10,10,9,3,,0.00,7,,223
2012-11-8,50,41,32,34,32,30,100,78,54,30.05,29.97,29.90,10,10,10,17,8,20,0.00,1,,190
2012-11-9,41,36,32,36,34,32,100,86,76,30.10,30.06,30.00,10,10,7,16,7,25,0.00,7,,46
2012-11-10,55,45,35,52,40,32,100,96,87,29.99,29.70,29.44,10,5,1,15,10,25,0.00,8,Rain-Snow-Thunderstorm,73
2012-11-11,51,37,21,52,30,14,100,87,68,29.85,29.69,29.48,10,9,2,18,11,24,0.00,8,Rain-Snow,244
2012-11-12,24,20,17,16,14,10,86,73,64,30.23,29.99,29.85,10,10,5,17,12,24,0.00,8,Snow,254
2012-11-13,37,26,14,27,19,14,100,72,52,30.33,30.28,30.23,10,10,10,12,6,,0.00,3,,190
2012-11-14,46,37,28,32,28,27,100,76,53,30.25,30.20,30.13,10,10,7,10,3,,0.00,3,,168
2012-11-15,46,34,23,32,21,7,100,68,30,30.46,30.25,30.10,10,8,1,14,3,20,0.00,2,,330
2012-11-16,39,26,12,23,16,10,92,65,41,30.48,30.41,30.31,10,10,10,8,3,,0.00,0,,130
2012-11-17,53,42,30,37,32,23,93,68,44,30.31,30.23,30.18,10,10,7,16,7,22,0.00,3,Rain,158
2012-11-18,53,48,42,34,32,30,62,55,44,30.18,30.11,30.06,10,10,10,17,10,22,0.00,2,,159
2012-11-19,51,40,30,37,33,30,100,70,54,30.08,30.04,30.01,10,10,7,12,5,,0.00,4,,172
2012-11-20,50,36,21,34,29,21,100,80,40,30.15,30.10,30.01,10,8,0,8,3,,0.00,0,Fog,236
2012-11-21,53,40,26,39,33,27,100,77,51,30.01,29.86,29.65,10,9,3,12,2,18,0.00,0,,157
2012-11-22,51,37,23,43,34,18,100,78,54,29.86,29.68,29.57,10,9,0,16,9,25,0.01,3,Snow,246
2012-11-23,23,18,10,19,13,9,93,75,63,30.33,30.18,29.88,10,8,2,22,13,36,0.00,6,Snow,317
2012-11-24,23,12,0,18,9,-4,100,81,63,30.31,30.08,29.79,10,10,7,7,2,,0.00,4,Snow,157
2012-11-25,28,22,15,21,19,9,86,75,59,30.14,29.93,29.78,10,10,7,15,5,17,0.00,7,Snow,298
2012-11-26,19,12,5,9,4,1,85,71,49,30.36,30.30,30.15,10,10,10,9,6,,0.00,2,Snow,288
2012-11-27,28,21,14,21,16,9,86,73,68,30.28,30.15,30.07,10,10,3,12,6,16,0.00,7,Snow,223
2012-11-28,30,24,19,23,19,14,93,78,68,30.30,30.20,30.08,10,10,7,12,6,10,0.00,5,,235
2012-11-29,32,24,17,27,22,16,100,87,75,30.17,30.12,30.07,10,8,3,13,5,20,0.00,5,,47
2012-11-30,32,29,26,30,26,21,93,85,80,30.20,30.14,30.06,10,9,5,12,8,16,0.00,8,,97